Time;durP1;ratioP1;P1;durP2;ratioP2;P2;SDS_P1;SDS_P2;PMS_P1;PMS_P2;Temp;Humidity;BMP_temperature;BMP_pressure;BME280_temperature;BME280_humidity;BME280_pressure;Samples;Min_cycle;Max_cycle;Signal;HPM_P1;HPM_P2
2023/09/01 00:01:05;;;;;;;18.45;13.80;;;16.10;89.80;;;;;;4961389;28;20023;-75
2023/09/01 00:03:31;;;;;;;16.17;13.65;;;16.10;89.70;;;;;;4964526;28;20030;-75
2023/09/01 00:06:02;;;;;;;18.40;14.88;;;16.10;89.80;;;;;;4953265;28;20027;-74
2023/09/01 00:08:28;;;;;;;16.20;14.00;;;16.10;89.70;;;;;;4967995;28;20141;-74
2023/09/01 00:10:54;;;;;;;17.02;13.75;;;16.10;89.80;;;;;;4958708;28;20109;-74
2023/09/01 00:13:20;;;;;;;16.60;12.70;;;16.10;89.80;;;;;;4956983;28;20118;-75
2023/09/01 00:15:45;;;;;;;18.20;13.40;;;16.10;89.90;;;;;;4956905;28;20090;-75
2023/09/01 00:18:11;;;;;;;18.45;13.65;;;16.10;89.80;;;;;;4952885;28;21553;-74
2023/09/01 00:20:37;;;;;;;17.50;14.05;;;16.10;90.00;;;;;;4958027;28;20462;-74
2023/09/01 00:23:03;;;;;;;19.23;14.52;;;16.20;90.00;;;;;;4958276;28;20134;-75
2023/09/01 00:25:29;;;;;;;17.65;14.07;;;16.10;90.10;;;;;;4954206;28;20439;-74
2023/09/01 00:27:55;;;;;;;17.83;15.30;;;16.10;90.20;;;;;;4960137;28;20038;-74
2023/09/01 00:30:21;;;;;;;20.23;14.95;;;16.10;90.20;;;;;;4957213;28;20031;-74
2023/09/01 00:32:46;;;;;;;16.95;14.30;;;16.10;90.10;;;;;;4957686;28;20061;-74
2023/09/01 00:35:12;;;;;;;18.63;14.25;;;16.20;90.20;;;;;;4956752;28;20023;-75
2023/09/01 00:37:38;;;;;;;18.98;14.57;;;16.20;90.30;;;;;;4958486;28;20130;-74
2023/09/01 00:40:04;;;;;;;23.20;16.30;;;16.20;90.20;;;;;;4960500;28;20489;-73
2023/09/01 00:42:29;;;;;;;20.58;16.45;;;16.20;90.30;;;;;;4957065;28;20039;-75
2023/09/01 00:44:55;;;;;;;20.98;15.65;;;16.30;90.40;;;;;;4961300;28;20426;-74
2023/09/01 00:47:21;;;;;;;20.63;15.30;;;16.30;90.40;;;;;;4960908;28;20038;-75
2023/09/01 00:49:47;;;;;;;17.40;14.13;;;16.30;90.30;;;;;;4959860;28;20050;-74
2023/09/01 00:52:13;;;;;;;18.48;14.27;;;16.30;90.40;;;;;;4961188;28;20031;-74
2023/09/01 00:54:38;;;;;;;16.80;13.98;;;16.30;90.30;;;;;;4961120;28;20088;-74
2023/09/01 00:57:04;;;;;;;19.42;15.38;;;16.30;90.50;;;;;;4960346;28;20046;-74
2023/09/01 00:59:31;;;;;;;19.73;15.05;;;16.30;90.40;;;;;;4961998;28;20076;-74
2023/09/01 01:01:56;;;;;;;18.35;14.73;;;16.30;90.50;;;;;;4966710;28;20045;-75
2023/09/01 01:04:23;;;;;;;19.35;15.63;;;16.30;90.60;;;;;;4960512;28;20443;-74
2023/09/01 01:07:08;;;;;;;19.50;15.43;;;16.30;90.60;;;;;;4957623;28;20034;-74
2023/09/01 01:10:19;;;;;;;18.00;14.68;;;16.40;90.60;;;;;;4959738;28;20493;-75
2023/09/01 01:13:10;;;;;;;18.80;14.95;;;16.40;90.60;;;;;;4993755;28;20035;-75
2023/09/01 01:15:37;;;;;;;19.02;15.30;;;16.40;90.60;;;;;;4998485;28;20687;-75
2023/09/01 01:18:08;;;;;;;18.02;14.18;;;16.40;90.60;;;;;;4964528;28;20038;-75
2023/09/01 01:20:37;;;;;;;17.90;14.82;;;16.40;90.60;;;;;;4957157;28;20044;-75
2023/09/01 01:23:16;;;;;;;18.02;14.48;;;16.40;90.60;;;;;;4958316;28;20065;-74
2023/09/01 01:25:49;;;;;;;17.48;14.18;;;16.50;90.60;;;;;;4959801;28;20039;-75
2023/09/01 01:28:16;;;;;;;18.35;15.50;;;16.50;90.80;;;;;;4964360;28;20061;-74
2023/09/01 01:30:42;;;;;;;19.30;14.48;;;16.50;90.80;;;;;;4963230;28;20110;-74
2023/09/01 01:33:14;;;;;;;17.63;13.65;;;16.50;90.80;;;;;;4963925;28;20612;-74
2023/09/01 01:35:48;;;;;;;17.83;13.75;;;16.50;90.90;;;;;;4965427;28;20031;-74
2023/09/01 01:38:21;;;;;;;19.42;14.52;;;16.50;91.00;;;;;;4963524;28;20528;-75
2023/09/01 01:40:50;;;;;;;17.08;13.48;;;16.60;91.10;;;;;;4958016;28;20031;-75
2023/09/01 01:43:23;;;;;;;19.80;14.23;;;16.60;91.10;;;;;;4958080;28;20116;-74
2023/09/01 01:45:49;;;;;;;19.90;14.95;;;16.60;91.20;;;;;;4962376;28;20036;-74
2023/09/01 01:48:15;;;;;;;21.08;15.32;;;16.60;91.40;;;;;;4959181;28;20026;-74
2023/09/01 01:50:41;;;;;;;23.23;16.38;;;16.60;91.40;;;;;;4964532;28;20385;-75
2023/09/01 01:53:07;;;;;;;22.23;16.27;;;16.60;91.50;;;;;;4961390;28;20035;-75
2023/09/01 01:55:33;;;;;;;20.92;16.95;;;16.60;91.60;;;;;;4963319;28;20034;-74
2023/09/01 01:58:00;;;;;;;22.90;17.27;;;16.60;91.60;;;;;;4963016;28;20042;-75
2023/09/01 02:00:27;;;;;;;21.20;17.63;;;16.50;91.70;;;;;;4958609;28;20493;-74
2023/09/01 02:02:54;;;;;;;21.70;17.67;;;16.60;91.90;;;;;;4963709;28;20473;-74
2023/09/01 02:05:19;;;;;;;25.38;18.65;;;16.60;91.90;;;;;;4965530;28;20035;-74
2023/09/01 02:07:45;;;;;;;23.10;18.13;;;16.60;92.10;;;;;;4964293;28;20046;-74
2023/09/01 02:10:11;;;;;;;25.63;19.05;;;16.60;92.20;;;;;;4960720;28;20496;-75
2023/09/01 02:12:36;;;;;;;24.55;19.20;;;16.60;92.20;;;;;;4973011;28;20092;-75
2023/09/01 02:15:03;;;;;;;22.60;17.95;;;16.60;92.30;;;;;;4961852;28;20030;-75
2023/09/01 02:17:29;;;;;;;24.73;19.58;;;16.60;92.30;;;;;;4959385;28;20050;-75
2023/09/01 02:19:56;;;;;;;25.05;18.38;;;16.60;92.40;;;;;;4963622;28;20023;-75
2023/09/01 02:22:22;;;;;;;26.02;18.25;;;16.60;92.50;;;;;;4963589;28;20041;-75
2023/09/01 02:24:48;;;;;;;21.95;17.60;;;16.60;92.60;;;;;;4961122;28;20528;-73
2023/09/01 02:27:13;;;;;;;23.40;19.23;;;16.70;92.60;;;;;;4962313;28;20492;-74
2023/09/01 02:29:39;;;;;;;21.38;17.73;;;16.70;92.70;;;;;;4960992;28;20041;-74
2023/09/01 02:32:06;;;;;;;22.30;18.45;;;16.70;92.70;;;;;;4961726;28;20046;-74
2023/09/01 02:34:32;;;;;;;22.27;17.38;;;16.70;92.70;;;;;;4953911;28;20038;-74
2023/09/01 02:36:58;;;;;;;21.98;18.45;;;16.70;92.80;;;;;;4959743;28;20043;-74
2023/09/01 02:39:24;;;;;;;24.42;17.40;;;16.70;92.80;;;;;;4963998;28;20019;-74
2023/09/01 02:41:49;;;;;;;21.88;18.40;;;16.70;92.80;;;;;;4961085;28;20392;-74
2023/09/01 02:44:15;;;;;;;22.50;17.67;;;16.80;92.80;;;;;;4957053;28;20038;-74
2023/09/01 02:46:41;;;;;;;23.63;18.23;;;16.70;92.70;;;;;;4962285;28;20037;-75
2023/09/01 02:49:06;;;;;;;24.42;18.02;;;16.70;92.80;;;;;;4959257;28;20092;-75
2023/09/01 02:51:32;;;;;;;22.98;17.60;;;16.80;92.90;;;;;;4960910;28;20031;-75
2023/09/01 02:53:58;;;;;;;21.95;17.65;;;16.80;92.90;;;;;;4963247;28;20492;-74
2023/09/01 02:56:24;;;;;;;21.30;16.50;;;16.80;93.00;;;;;;4963108;28;20577;-75
2023/09/01 02:58:49;;;;;;;21.67;17.13;;;16.80;93.00;;;;;;4961138;28;20075;-74
2023/09/01 03:01:15;;;;;;;21.80;17.70;;;16.80;93.00;;;;;;4961468;28;20022;-74
2023/09/01 03:03:42;;;;;;;20.98;16.55;;;16.80;93.00;;;;;;4962631;28;20121;-75
2023/09/01 03:06:08;;;;;;;21.20;16.88;;;16.90;93.10;;;;;;4959845;28;20030;-73
2023/09/01 03:08:34;;;;;;;23.75;17.25;;;16.90;93.10;;;;;;4960296;28;20034;-74
2023/09/01 03:11:00;;;;;;;22.23;17.10;;;16.90;93.10;;;;;;4960480;28;20029;-74
2023/09/01 03:13:26;;;;;;;23.30;17.77;;;16.90;93.20;;;;;;4960549;28;20034;-75
2023/09/01 03:15:55;;;;;;;19.35;14.63;;;16.90;93.20;;;;;;4965259;28;20390;-74
2023/09/01 03:18:21;;;;;;;20.27;15.80;;;16.90;93.20;;;;;;4960607;28;20707;-75
2023/09/01 03:20:48;;;;;;;24.40;15.95;;;16.90;93.30;;;;;;4963731;28;20038;-74
2023/09/01 03:23:13;;;;;;;22.02;15.15;;;17.00;93.30;;;;;;4964191;28;20909;-75
2023/09/01 03:25:39;;;;;;;23.30;16.00;;;16.90;93.30;;;;;;4964441;28;20105;-74
2023/09/01 03:28:05;;;;;;;19.52;14.52;;;17.00;93.40;;;;;;4911518;28;1583007;-74
2023/09/01 03:30:31;;;;;;;20.92;15.85;;;16.90;93.40;;;;;;4971570;28;20029;-74
2023/09/01 03:32:57;;;;;;;20.17;15.43;;;16.90;93.50;;;;;;4976075;28;20038;-74
2023/09/01 03:35:23;;;;;;;19.13;15.30;;;17.00;93.50;;;;;;4966591;28;20063;-73
2023/09/01 03:37:49;;;;;;;19.45;15.65;;;17.00;93.50;;;;;;4961430;28;20081;-74
2023/09/01 03:40:15;;;;;;;19.77;15.20;;;17.00;93.50;;;;;;4970229;28;20034;-74
2023/09/01 03:42:41;;;;;;;20.30;15.38;;;17.00;93.50;;;;;;4965210;28;20134;-74
2023/09/01 03:45:07;;;;;;;19.52;15.27;;;17.00;93.60;;;;;;4963685;28;20035;-73
2023/09/01 03:47:33;;;;;;;19.25;14.05;;;17.10;93.60;;;;;;4959913;28;20085;-74
2023/09/01 03:49:58;;;;;;;18.27;14.40;;;17.10;93.70;;;;;;4961903;28;20530;-73
2023/09/01 03:52:24;;;;;;;18.25;13.73;;;17.10;93.70;;;;;;4961534;28;20043;-74
2023/09/01 03:54:50;;;;;;;21.88;13.98;;;17.10;93.70;;;;;;4963316;28;20108;-74
2023/09/01 03:57:16;;;;;;;15.90;12.35;;;17.10;93.70;;;;;;4961128;28;20466;-74
2023/09/01 03:59:43;;;;;;;17.08;12.02;;;17.10;93.80;;;;;;4963817;28;20026;-74
2023/09/01 04:02:09;;;;;;;16.92;12.70;;;17.10;93.90;;;;;;4963414;28;20346;-74
2023/09/01 04:04:35;;;;;;;16.10;12.07;;;17.20;93.90;;;;;;4962662;28;20037;-74
2023/09/01 04:07:01;;;;;;;15.65;11.18;;;17.20;93.90;;;;;;4956492;28;20308;-73
2023/09/01 04:09:27;;;;;;;12.23;9.35;;;17.30;93.90;;;;;;4963125;28;20294;-74
2023/09/01 04:11:54;;;;;;;15.15;11.13;;;17.20;93.90;;;;;;4960492;28;21757;-72
2023/09/01 04:14:20;;;;;;;16.33;10.77;;;17.30;94.00;;;;;;4963307;28;20027;-74
2023/09/01 04:16:46;;;;;;;14.07;10.48;;;17.30;94.00;;;;;;4962686;28;20031;-74
2023/09/01 04:19:11;;;;;;;14.90;10.95;;;17.30;94.00;;;;;;4964480;28;20529;-74
2023/09/01 04:21:37;;;;;;;13.90;10.73;;;17.30;94.10;;;;;;4960151;28;20037;-74
2023/09/01 04:24:03;;;;;;;15.70;11.45;;;17.30;94.10;;;;;;4959697;28;20038;-74
2023/09/01 04:26:29;;;;;;;14.88;10.82;;;17.30;94.10;;;;;;4957007;28;20035;-74
2023/09/01 04:28:54;;;;;;;14.57;10.05;;;17.30;94.10;;;;;;4964612;28;20090;-75
2023/09/01 04:31:28;;;;;;;16.70;11.13;;;17.30;94.10;;;;;;4957842;28;20027;-74
2023/09/01 04:33:57;;;;;;;17.45;11.70;;;17.30;94.20;;;;;;4956545;28;20096;-74
2023/09/01 04:36:23;;;;;;;15.57;10.95;;;17.30;94.20;;;;;;4960988;28;20111;-74
2023/09/01 04:38:49;;;;;;;14.32;11.00;;;17.30;94.20;;;;;;4955126;28;20129;-74
2023/09/01 04:41:15;;;;;;;14.05;9.68;;;17.40;94.20;;;;;;4960094;28;20026;-74
2023/09/01 04:43:41;;;;;;;13.55;10.25;;;17.30;94.20;;;;;;4958350;28;20035;-74
2023/09/01 04:46:06;;;;;;;14.52;10.93;;;17.30;94.30;;;;;;4961343;28;20144;-74
2023/09/01 04:48:34;;;;;;;13.60;10.07;;;17.40;94.30;;;;;;4958762;28;20130;-74
2023/09/01 04:51:02;;;;;;;16.48;11.52;;;17.40;94.30;;;;;;4957981;28;20467;-74
2023/09/01 04:53:31;;;;;;;15.18;10.95;;;17.40;94.30;;;;;;4953387;28;21758;-74
2023/09/01 04:55:56;;;;;;;14.98;10.10;;;17.40;94.30;;;;;;4959699;28;20112;-74
2023/09/01 04:58:22;;;;;;;13.15;9.95;;;17.40;94.40;;;;;;4961332;28;20112;-74
2023/09/01 05:00:49;;;;;;;13.20;9.35;;;17.40;94.40;;;;;;4954714;28;21249;-73
2023/09/01 05:03:15;;;;;;;12.55;9.13;;;17.40;94.40;;;;;;4960346;28;20434;-73
2023/09/01 05:05:41;;;;;;;14.15;9.18;;;17.40;94.40;;;;;;4956312;28;20452;-73
2023/09/01 05:08:07;;;;;;;13.98;9.27;;;17.40;94.50;;;;;;4956520;28;20846;-73
2023/09/01 05:10:32;;;;;;;11.85;8.75;;;17.50;94.50;;;;;;4954997;28;20023;-73
2023/09/01 05:12:58;;;;;;;12.77;8.82;;;17.50;94.40;;;;;;4943630;28;20123;-73
2023/09/01 05:15:24;;;;;;;12.20;7.97;;;17.50;94.50;;;;;;4942600;28;20287;-75
2023/09/01 05:17:49;;;;;;;12.40;8.70;;;17.50;94.50;;;;;;4955668;28;20047;-74
2023/09/01 05:20:15;;;;;;;12.85;8.38;;;17.50;94.50;;;;;;4960530;28;20125;-74
2023/09/01 05:22:41;;;;;;;10.05;7.13;;;17.50;94.50;;;;;;4952030;28;20142;-73
2023/09/01 05:25:08;;;;;;;10.80;7.03;;;17.50;94.50;;;;;;4942559;28;20032;-75
2023/09/01 05:27:33;;;;;;;10.32;7.03;;;17.50;94.50;;;;;;4982261;28;20071;-73
2023/09/01 05:29:59;;;;;;;12.55;7.53;;;17.50;94.50;;;;;;5033069;28;20065;-73
2023/09/01 05:32:31;;;;;;;11.05;7.20;;;17.50;94.60;;;;;;5001991;28;20050;-74
2023/09/01 05:34:56;;;;;;;13.18;8.40;;;17.50;94.60;;;;;;4936050;28;20402;-76
2023/09/01 05:37:22;;;;;;;11.30;7.40;;;17.50;94.60;;;;;;4937293;28;20047;-74
2023/09/01 05:39:48;;;;;;;10.32;6.88;;;17.60;94.60;;;;;;4934591;28;20726;-74
2023/09/01 05:42:16;;;;;;;10.60;6.95;;;17.60;94.60;;;;;;4931823;28;20048;-74
2023/09/01 05:44:42;;;;;;;9.70;6.50;;;17.50;94.60;;;;;;4940350;28;20032;-74
2023/09/01 05:47:07;;;;;;;10.73;7.00;;;17.60;94.60;;;;;;4938041;28;20100;-74
2023/09/01 05:49:34;;;;;;;10.73;6.82;;;17.60;94.60;;;;;;4939393;28;20028;-74
2023/09/01 05:52:01;;;;;;;8.20;5.30;;;17.60;94.60;;;;;;4933414;28;20405;-71
2023/09/01 05:54:27;;;;;;;11.07;5.60;;;17.60;94.60;;;;;;4938131;28;20035;-73
2023/09/01 05:56:53;;;;;;;9.45;5.35;;;17.60;94.60;;;;;;4932356;28;20050;-74
2023/09/01 05:59:19;;;;;;;9.00;5.32;;;17.60;94.70;;;;;;4933979;28;20552;-74
2023/09/01 06:01:44;;;;;;;9.13;5.10;;;17.60;94.70;;;;;;4938376;28;20150;-74
2023/09/01 06:04:10;;;;;;;8.65;5.32;;;17.60;94.70;;;;;;4959933;28;20049;-74
2023/09/01 06:06:36;;;;;;;10.18;6.18;;;17.70;94.60;;;;;;4955314;28;20038;-74
2023/09/01 06:09:05;;;;;;;9.20;5.80;;;17.70;94.60;;;;;;4962363;28;20388;-75
2023/09/01 06:11:35;;;;;;;9.63;5.32;;;17.70;94.60;;;;;;4959406;28;20031;-74
2023/09/01 06:14:01;;;;;;;8.77;5.20;;;17.70;94.60;;;;;;4959612;28;20026;-74
2023/09/01 06:16:27;;;;;;;9.45;4.90;;;17.60;94.70;;;;;;4957126;28;20042;-73
2023/09/01 06:18:54;;;;;;;9.10;5.05;;;17.70;94.70;;;;;;4958116;28;20435;-73
2023/09/01 06:21:20;;;;;;;9.60;5.68;;;17.70;94.60;;;;;;4957308;28;20477;-74
2023/09/01 06:23:47;;;;;;;8.48;4.97;;;17.70;94.70;;;;;;4958289;28;20035;-73
2023/09/01 06:26:19;;;;;;;8.38;4.30;;;17.70;94.70;;;;;;4960973;28;20417;-74
2023/09/01 06:28:46;;;;;;;6.75;3.80;;;17.70;94.70;;;;;;4960216;28;20049;-74
2023/09/01 06:31:13;;;;;;;6.72;3.90;;;17.70;94.70;;;;;;4960017;28;20011;-74
2023/09/01 06:33:42;;;;;;;8.82;4.57;;;17.70;94.80;;;;;;4958629;28;20039;-75
2023/09/01 06:36:09;;;;;;;8.18;4.72;;;17.70;94.70;;;;;;4957430;28;20023;-74
2023/09/01 06:38:35;;;;;;;9.18;4.20;;;17.70;94.80;;;;;;4958425;28;20058;-74
2023/09/01 06:41:03;;;;;;;7.40;4.55;;;17.80;94.80;;;;;;4959850;28;20815;-73
2023/09/01 06:43:29;;;;;;;7.45;4.93;;;17.80;94.80;;;;;;4956471;28;20045;-73
2023/09/01 06:45:55;;;;;;;7.90;4.28;;;17.70;94.80;;;;;;4952611;28;20032;-74
2023/09/01 06:48:20;;;;;;;7.95;3.85;;;17.70;94.80;;;;;;4948709;28;20027;-76
2023/09/01 06:50:46;;;;;;;8.55;3.58;;;17.80;94.80;;;;;;4944759;28;20027;-75
2023/09/01 06:53:12;;;;;;;6.30;3.30;;;17.70;94.70;;;;;;4938461;28;20042;-74
2023/09/01 06:55:38;;;;;;;6.07;2.70;;;17.70;94.70;;;;;;4954316;28;20135;-75
2023/09/01 06:58:05;;;;;;;5.68;2.75;;;17.80;94.80;;;;;;4939592;28;20043;-74
2023/09/01 07:00:31;;;;;;;5.68;2.22;;;17.80;94.70;;;;;;4945652;28;20031;-75
2023/09/01 07:02:56;;;;;;;6.32;2.30;;;17.70;94.70;;;;;;4939929;28;20482;-74
2023/09/01 07:05:23;;;;;;;3.78;2.00;;;17.70;94.70;;;;;;4941767;28;20038;-75
2023/09/01 07:07:50;;;;;;;4.45;2.35;;;17.60;94.70;;;;;;4943737;28;20125;-74
2023/09/01 07:10:16;;;;;;;5.07;2.28;;;17.70;94.70;;;;;;4947301;28;20062;-74
2023/09/01 07:12:43;;;;;;;4.45;2.17;;;17.70;94.60;;;;;;4940253;28;20504;-73
2023/09/01 07:15:09;;;;;;;5.32;2.38;;;17.70;94.70;;;;;;4952961;28;20081;-74
2023/09/01 07:17:35;;;;;;;5.75;2.55;;;17.70;94.70;;;;;;4949344;28;20497;-73
2023/09/01 07:20:03;;;;;;;4.22;2.15;;;17.70;94.70;;;;;;4938632;28;20030;-74
2023/09/01 07:22:28;;;;;;;3.28;2.05;;;17.70;94.70;;;;;;4941283;28;20034;-74
2023/09/01 07:24:54;;;;;;;5.47;2.78;;;17.70;94.60;;;;;;4945904;28;20035;-73
2023/09/01 07:27:20;;;;;;;5.82;2.92;;;17.70;94.60;;;;;;4940829;28;20043;-74
2023/09/01 07:29:48;;;;;;;6.20;3.17;;;17.80;94.60;;;;;;4946054;28;20078;-73
2023/09/01 07:32:15;;;;;;;5.43;3.28;;;17.80;94.60;;;;;;4943016;28;21293;-74
2023/09/01 07:34:40;;;;;;;6.40;3.50;;;17.80;94.60;;;;;;4951119;28;20114;-73
2023/09/01 07:37:07;;;;;;;8.50;4.40;;;17.80;94.60;;;;;;4939560;28;20451;-75
2023/09/01 07:39:34;;;;;;;7.75;4.10;;;17.80;94.50;;;;;;4947666;28;20248;-74
2023/09/01 07:41:59;;;;;;;7.60;4.45;;;17.70;94.60;;;;;;4941939;28;20039;-75
2023/09/01 07:44:25;;;;;;;7.63;5.30;;;17.80;94.60;;;;;;4946008;28;20077;-75
2023/09/01 07:46:51;;;;;;;9.45;5.75;;;17.80;94.60;;;;;;4949988;28;20321;-75
2023/09/01 07:49:17;;;;;;;8.90;5.78;;;17.80;94.50;;;;;;4944607;28;20027;-75
2023/09/01 07:51:44;;;;;;;7.88;5.43;;;17.80;94.50;;;;;;4943526;28;20024;-75
2023/09/01 07:54:09;;;;;;;11.07;5.85;;;17.80;94.50;;;;;;4946796;28;20130;-76
2023/09/01 07:56:35;;;;;;;10.57;6.57;;;17.80;94.40;;;;;;4946135;28;20118;-75
2023/09/01 07:59:02;;;;;;;7.68;5.57;;;17.80;94.40;;;;;;4937532;28;20028;-75
2023/09/01 08:01:29;;;;;;;7.88;5.10;;;17.80;94.40;;;;;;4947284;28;20031;-75
2023/09/01 08:03:56;;;;;;;8.10;5.80;;;17.80;94.40;;;;;;4945480;28;20047;-75
2023/09/01 08:06:22;;;;;;;8.07;5.65;;;17.90;94.40;;;;;;4963462;28;20037;-74
2023/09/01 08:08:48;;;;;;;9.77;5.55;;;17.90;94.40;;;;;;4964375;28;20043;-74
2023/09/01 08:11:13;;;;;;;7.75;5.15;;;18.00;94.40;;;;;;4964808;28;20094;-74
2023/09/01 08:13:40;;;;;;;9.18;5.00;;;18.00;94.30;;;;;;4946856;28;20067;-75
2023/09/01 08:16:07;;;;;;;8.90;4.72;;;18.00;94.30;;;;;;4946209;28;20046;-74
2023/09/01 08:18:33;;;;;;;7.15;3.80;;;18.10;94.30;;;;;;4951547;28;20154;-75
2023/09/01 08:21:03;;;;;;;11.35;5.00;;;18.00;94.20;;;;;;4953437;28;20222;-74
2023/09/01 08:23:29;;;;;;;9.23;4.43;;;18.10;94.20;;;;;;4952684;28;20238;-75
2023/09/01 08:25:54;;;;;;;7.57;5.10;;;18.10;94.10;;;;;;4947548;28;20040;-75
2023/09/01 08:28:20;;;;;;;7.53;4.15;;;18.10;94.00;;;;;;4962493;28;20089;-74
2023/09/01 08:30:46;;;;;;;6.35;3.33;;;18.20;94.10;;;;;;4966639;28;20038;-75
2023/09/01 08:33:13;;;;;;;6.40;3.22;;;18.40;94.10;;;;;;4950725;28;20142;-74
2023/09/01 08:35:39;;;;;;;4.22;2.03;;;18.50;94.00;;;;;;4955004;28;20153;-74
2023/09/01 08:38:05;;;;;;;4.28;2.33;;;18.60;93.70;;;;;;4960755;28;20064;-75
2023/09/01 08:40:31;;;;;;;4.18;2.28;;;18.60;93.40;;;;;;4958903;28;20035;-75
2023/09/01 08:43:00;;;;;;;4.95;2.60;;;18.60;93.30;;;;;;4959241;28;20068;-74
2023/09/01 08:45:27;;;;;;;4.60;1.70;;;18.60;93.00;;;;;;4950859;28;20037;-74
2023/09/01 08:47:53;;;;;;;2.97;1.58;;;18.60;92.80;;;;;;4958879;28;20111;-75
2023/09/01 08:50:22;;;;;;;2.08;1.60;;;18.60;92.60;;;;;;4965758;28;20152;-74
2023/09/01 08:52:49;;;;;;;2.17;1.20;;;18.60;92.70;;;;;;4953392;28;20466;-76
2023/09/01 08:55:16;;;;;;;3.03;1.30;;;18.60;92.50;;;;;;4949639;28;20057;-74
2023/09/01 08:57:42;;;;;;;1.95;1.08;;;18.60;92.40;;;;;;4950880;28;20055;-74
2023/09/01 09:00:09;;;;;;;2.95;1.42;;;18.60;92.40;;;;;;4949748;28;20126;-75
2023/09/01 09:02:42;;;;;;;3.78;1.90;;;18.60;92.30;;;;;;4949445;28;20084;-74
2023/09/01 09:05:11;;;;;;;2.60;1.63;;;18.60;92.10;;;;;;4964427;28;20439;-75
2023/09/01 09:07:37;;;;;;;2.78;1.40;;;18.60;92.30;;;;;;4961601;28;20039;-76
2023/09/01 09:10:06;;;;;;;4.10;1.50;;;18.60;92.20;;;;;;4948704;28;20037;-75
2023/09/01 09:12:41;;;;;;;3.55;1.75;;;18.70;92.00;;;;;;4959512;28;20027;-75
2023/09/01 09:15:08;;;;;;;3.40;1.88;;;18.80;92.10;;;;;;4964234;28;20031;-74
2023/09/01 09:17:44;;;;;;;3.53;1.95;;;19.00;92.40;;;;;;4962364;28;20050;-75
2023/09/01 09:20:17;;;;;;;3.47;1.90;;;19.10;92.30;;;;;;4945940;28;20619;-74
2023/09/01 09:22:54;;;;;;;4.15;1.80;;;19.40;92.20;;;;;;4944970;28;20027;-75
2023/09/01 09:25:31;;;;;;;6.13;2.20;;;19.50;91.70;;;;;;4951707;28;20102;-75
2023/09/01 09:27:59;;;;;;;3.35;2.10;;;19.60;91.40;;;;;;4939435;28;20071;-75
2023/09/01 09:30:25;;;;;;;3.67;2.20;;;19.50;91.10;;;;;;4944733;28;20474;-75
2023/09/01 09:33:07;;;;;;;5.30;2.30;;;19.50;91.10;;;;;;4943989;28;20031;-74
2023/09/01 09:35:34;;;;;;;3.55;2.50;;;19.60;91.10;;;;;;4945832;28;20058;-75
2023/09/01 09:38:00;;;;;;;4.13;2.30;;;19.60;90.80;;;;;;4937716;28;20051;-80
2023/09/01 09:40:27;;;;;;;4.35;2.58;;;19.60;90.90;;;;;;4950963;28;20032;-75
2023/09/01 09:42:58;;;;;;;5.72;2.72;;;19.60;90.80;;;;;;4939702;28;20050;-78
2023/09/01 09:45:33;;;;;;;3.75;2.30;;;19.60;90.90;;;;;;4946994;28;20138;-75
2023/09/01 09:48:08;;;;;;;4.50;2.65;;;19.70;90.90;;;;;;4954708;28;20039;-77
2023/09/01 09:50:35;;;;;;;3.97;2.67;;;19.60;90.80;;;;;;4965959;28;20034;-76
2023/09/01 09:53:03;;;;;;;4.60;2.63;;;19.50;91.00;;;;;;4956257;28;20494;-75
2023/09/01 09:55:31;;;;;;;4.80;2.78;;;19.60;91.10;;;;;;4959624;28;20029;-76
2023/09/01 09:58:07;;;;;;;4.50;2.65;;;19.60;91.00;;;;;;4964950;28;20047;-78
2023/09/01 10:00:42;;;;;;;4.65;2.85;;;19.70;91.20;;;;;;4952099;28;20055;-74
2023/09/01 10:03:08;;;;;;;4.50;2.78;;;19.70;91.10;;;;;;4952035;28;20108;-74
2023/09/01 10:05:35;;;;;;;4.93;2.60;;;19.70;90.70;;;;;;4967294;28;20035;-74
2023/09/01 10:08:03;;;;;;;4.85;2.80;;;19.80;90.90;;;;;;4964297;28;20058;-75
2023/09/01 10:10:30;;;;;;;4.72;2.83;;;19.90;90.70;;;;;;4964129;28;20031;-74
2023/09/01 10:12:56;;;;;;;5.63;2.80;;;20.00;90.50;;;;;;4966817;28;20092;-74
2023/09/01 10:15:25;;;;;;;4.95;2.60;;;20.10;90.20;;;;;;4963867;28;20411;-74
2023/09/01 10:17:51;;;;;;;5.40;2.50;;;19.90;90.00;;;;;;4966218;28;20405;-74
2023/09/01 10:20:17;;;;;;;6.93;3.03;;;20.00;90.20;;;;;;4964223;28;20023;-74
2023/09/01 10:22:46;;;;;;;4.82;2.33;;;20.00;90.20;;;;;;4976578;28;20739;-75
2023/09/01 10:25:18;;;;;;;5.47;2.90;;;20.00;90.20;;;;;;4964675;28;20033;-75
2023/09/01 10:28:11;;;;;;;5.95;3.13;;;20.00;89.90;;;;;;4965646;28;20049;-75
2023/09/01 10:30:41;;;;;;;5.22;3.10;;;20.00;89.60;;;;;;4960997;28;20027;-76
2023/09/01 10:33:08;;;;;;;6.55;3.15;;;20.10;89.60;;;;;;4962356;28;20517;-76
2023/09/01 10:35:50;;;;;;;6.38;3.20;;;20.10;89.70;;;;;;4959451;28;20066;-73
2023/09/01 10:38:17;;;;;;;7.57;3.67;;;20.10;89.60;;;;;;4969534;28;20092;-73
2023/09/01 10:40:47;;;;;;;5.95;3.10;;;20.10;89.50;;;;;;4968823;28;20031;-75
2023/09/01 10:43:33;;;;;;;5.28;3.38;;;20.20;89.70;;;;;;4970081;28;20042;-74
2023/09/01 10:46:14;;;;;;;7.30;2.90;;;20.20;89.60;;;;;;4967956;28;20122;-74
2023/09/01 10:48:49;;;;;;;7.35;3.60;;;20.30;89.10;;;;;;4965679;28;20054;-73
2023/09/01 10:51:37;;;;;;;5.05;2.97;;;20.30;88.80;;;;;;4964066;28;20059;-74
2023/09/01 10:54:23;;;;;;;5.88;3.72;;;20.40;88.90;;;;;;4966740;28;20126;-75
2023/09/01 10:56:56;;;;;;;4.53;3.03;;;20.70;89.10;;;;;;4950856;28;20086;-74
2023/09/01 10:59:29;;;;;;;6.22;3.00;;;20.70;87.20;;;;;;4943823;28;20042;-74
2023/09/01 11:01:55;;;;;;;5.13;2.85;;;20.90;87.50;;;;;;4944451;28;20039;-74
2023/09/01 11:04:21;;;;;;;4.90;2.90;;;21.00;87.00;;;;;;4950098;28;20038;-75
2023/09/01 11:07:00;;;;;;;5.30;3.35;;;21.00;86.10;;;;;;4948419;28;20051;-74
2023/09/01 11:09:34;;;;;;;5.90;3.42;;;21.20;86.50;;;;;;4961020;28;20049;-73
2023/09/01 11:12:01;;;;;;;4.97;3.00;;;21.30;85.20;;;;;;4935656;28;20085;-74
2023/09/01 11:14:26;;;;;;;6.50;3.67;;;21.40;85.30;;;;;;4951087;28;20489;-76
2023/09/01 11:16:52;;;;;;;5.88;3.13;;;21.80;85.30;;;;;;4950165;28;20142;-72
2023/09/01 11:19:17;;;;;;;6.20;3.25;;;22.10;84.70;;;;;;4949755;28;20023;-75
2023/09/01 11:21:45;;;;;;;4.90;3.20;;;22.00;83.80;;;;;;4953544;28;20034;-74
2023/09/01 11:24:11;;;;;;;4.88;3.05;;;22.10;83.20;;;;;;4952574;28;20031;-72
2023/09/01 11:26:37;;;;;;;6.20;3.30;;;22.00;82.70;;;;;;4952883;28;20092;-73
2023/09/01 11:29:09;;;;;;;5.43;3.33;;;21.90;82.40;;;;;;4940768;28;20038;-76
2023/09/01 11:31:42;;;;;;;6.35;3.83;;;22.00;82.20;;;;;;4942950;28;20355;-71
2023/09/01 11:34:08;;;;;;;7.23;3.47;;;22.00;82.20;;;;;;4943920;28;20024;-75
2023/09/01 11:36:43;;;;;;;6.20;3.50;;;22.00;82.40;;;;;;4942576;28;20027;-73
2023/09/01 11:39:09;;;;;;;6.40;3.40;;;22.10;81.70;;;;;;4965810;28;20281;-74
2023/09/01 11:41:35;;;;;;;5.15;3.53;;;22.00;81.30;;;;;;4964591;28;20381;-74
2023/09/01 11:44:02;;;;;;;5.90;3.55;;;22.00;82.20;;;;;;4943799;28;20545;-74
2023/09/01 11:46:37;;;;;;;5.70;3.72;;;21.90;82.30;;;;;;4943977;28;20031;-74
2023/09/01 11:49:04;;;;;;;6.13;3.75;;;21.90;82.80;;;;;;4944427;28;20082;-75
2023/09/01 11:51:36;;;;;;;5.53;3.53;;;22.00;83.60;;;;;;4943850;28;20023;-75
2023/09/01 11:54:01;;;;;;;6.50;4.20;;;22.00;83.50;;;;;;4942944;28;20055;-75
2023/09/01 11:56:27;;;;;;;7.15;4.53;;;22.10;82.80;;;;;;4941603;28;20471;-75
2023/09/01 11:58:55;;;;;;;7.20;4.15;;;22.00;83.10;;;;;;4941143;28;20507;-74
2023/09/01 12:01:23;;;;;;;6.75;4.15;;;21.80;83.10;;;;;;4946918;28;20027;-75
2023/09/01 12:03:54;;;;;;;8.57;4.68;;;21.80;83.50;;;;;;4941524;28;20569;-73
2023/09/01 12:06:22;;;;;;;7.30;4.60;;;21.90;82.90;;;;;;4939470;28;20039;-74
2023/09/01 12:08:49;;;;;;;6.97;4.20;;;22.00;83.10;;;;;;4955070;28;20036;-74
2023/09/01 12:11:16;;;;;;;7.40;4.43;;;22.00;83.30;;;;;;4945872;28;20025;-75
2023/09/01 12:13:45;;;;;;;8.23;4.28;;;22.00;83.10;;;;;;4940502;28;20031;-75
2023/09/01 12:16:24;;;;;;;7.95;4.65;;;22.00;82.80;;;;;;4945686;28;20082;-75
2023/09/01 12:18:52;;;;;;;7.18;4.38;;;21.90;83.70;;;;;;4943814;28;20051;-75
2023/09/01 12:21:18;;;;;;;7.22;4.95;;;21.90;83.80;;;;;;4942839;28;20031;-74
2023/09/01 12:23:46;;;;;;;7.18;4.78;;;21.90;84.50;;;;;;4943430;28;20054;-76
2023/09/01 12:26:13;;;;;;;9.13;4.13;;;22.10;84.70;;;;;;4944859;28;20034;-73
2023/09/01 12:28:41;;;;;;;7.15;4.00;;;22.10;84.00;;;;;;4937790;28;20055;-74
2023/09/01 12:31:08;;;;;;;5.78;4.30;;;22.30;84.20;;;;;;4941946;28;20030;-74
2023/09/01 12:33:35;;;;;;;7.10;4.20;;;22.50;83.90;;;;;;4937069;28;20090;-74
2023/09/01 12:36:01;;;;;;;7.18;5.50;;;22.60;83.50;;;;;;4943521;28;20035;-75
2023/09/01 12:38:27;;;;;;;6.03;3.70;;;22.80;82.80;;;;;;4940114;28;20050;-73
2023/09/01 12:40:53;;;;;;;4.93;3.45;;;22.70;81.50;;;;;;4950346;28;20047;-73